sensor_id;sensor_type;location;lat;lon;timestamp;pressure;altitude;pressure_sealevel;temperature;humidity
64460;BME280;50828;53.756;21.140;2023-09-18T00:00:35;100128.87;;;14.34;63.55
64460;BME280;50828;53.756;21.140;2023-09-18T00:05:42;100129.16;;;14.29;63.97
64460;BME280;50828;53.756;21.140;2023-09-18T00:10:51;100131.83;;;14.25;63.85
64460;BME280;50828;53.756;21.140;2023-09-18T00:15:59;100125.82;;;14.22;63.72
64460;BME280;50828;53.756;21.140;2023-09-18T00:21:08;100124.66;;;14.17;63.45
64460;BME280;50828;53.756;21.140;2023-09-18T00:26:16;100128.16;;;14.11;63.32
64460;BME280;50828;53.756;21.140;2023-09-18T00:31:25;100128.59;;;14.06;64.08
64460;BME280;50828;53.756;21.140;2023-09-18T00:36:32;100124.48;;;14.01;63.90
64460;BME280;50828;53.756;21.140;2023-09-18T00:41:40;100118.92;;;13.92;63.68
64460;BME280;50828;53.756;21.140;2023-09-18T00:46:50;100110.66;;;13.84;63.46
64460;BME280;50828;53.756;21.140;2023-09-18T00:51:58;100112.05;;;13.82;63.91
64460;BME280;50828;53.756;21.140;2023-09-18T00:57:06;100113.19;;;13.77;64.50
64460;BME280;50828;53.756;21.140;2023-09-18T01:02:16;100108.05;;;13.74;65.05
64460;BME280;50828;53.756;21.140;2023-09-18T01:07:27;100104.23;;;13.69;64.54
64460;BME280;50828;53.756;21.140;2023-09-18T01:12:39;100105.97;;;13.66;64.84
64460;BME280;50828;53.756;21.140;2023-09-18T01:17:50;100104.51;;;13.64;64.81
64460;BME280;50828;53.756;21.140;2023-09-18T01:22:58;100102.30;;;13.62;65.28
64460;BME280;50828;53.756;21.140;2023-09-18T01:28:06;100098.04;;;13.59;65.31
64460;BME280;50828;53.756;21.140;2023-09-18T01:33:14;100094.88;;;13.58;65.23
64460;BME280;50828;53.756;21.140;2023-09-18T01:38:23;100085.77;;;13.56;64.95
64460;BME280;50828;53.756;21.140;2023-09-18T01:43:31;100084.95;;;13.55;65.84
64460;BME280;50828;53.756;21.140;2023-09-18T01:48:39;100085.29;;;13.55;66.38
64460;BME280;50828;53.756;21.140;2023-09-18T01:53:54;100086.40;;;13.58;66.65
64460;BME280;50828;53.756;21.140;2023-09-18T01:59:01;100081.85;;;13.61;66.73
64460;BME280;50828;53.756;21.140;2023-09-18T02:04:10;100081.71;;;13.63;66.73
64460;BME280;50828;53.756;21.140;2023-09-18T02:09:37;100087.39;;;13.66;67.07
64460;BME280;50828;53.756;21.140;2023-09-18T02:14:45;100083.61;;;13.67;67.06
64460;BME280;50828;53.756;21.140;2023-09-18T02:19:53;100088.27;;;13.69;67.62
64460;BME280;50828;53.756;21.140;2023-09-18T02:25:01;100082.09;;;13.72;67.93
64460;BME280;50828;53.756;21.140;2023-09-18T02:30:10;100083.66;;;13.76;68.08
64460;BME280;50828;53.756;21.140;2023-09-18T02:35:18;100081.09;;;13.78;68.27
64460;BME280;50828;53.756;21.140;2023-09-18T02:40:26;100081.67;;;13.84;68.45
64460;BME280;50828;53.756;21.140;2023-09-18T02:45:33;100085.04;;;13.87;68.55
64460;BME280;50828;53.756;21.140;2023-09-18T02:50:41;100075.15;;;13.90;68.35
64460;BME280;50828;53.756;21.140;2023-09-18T02:55:48;100068.52;;;13.91;68.32
64460;BME280;50828;53.756;21.140;2023-09-18T03:00:57;100064.55;;;13.96;69.00
64460;BME280;50828;53.756;21.140;2023-09-18T03:06:06;100056.30;;;13.98;69.01
64460;BME280;50828;53.756;21.140;2023-09-18T03:11:15;100053.06;;;14.05;69.41
64460;BME280;50828;53.756;21.140;2023-09-18T03:16:22;100053.56;;;14.11;69.47
64460;BME280;50828;53.756;21.140;2023-09-18T03:21:30;100060.15;;;14.18;68.75
64460;BME280;50828;53.756;21.140;2023-09-18T03:26:39;100058.93;;;14.21;68.80
64460;BME280;50828;53.756;21.140;2023-09-18T03:31:46;100056.48;;;14.20;68.46
64460;BME280;50828;53.756;21.140;2023-09-18T03:36:55;100056.19;;;14.19;68.27
64460;BME280;50828;53.756;21.140;2023-09-18T03:42:03;100051.91;;;14.16;67.76
64460;BME280;50828;53.756;21.140;2023-09-18T03:47:11;100044.41;;;14.11;67.77
64460;BME280;50828;53.756;21.140;2023-09-18T03:52:19;100048.50;;;14.07;67.57
64460;BME280;50828;53.756;21.140;2023-09-18T03:57:27;100049.85;;;14.02;67.42
64460;BME280;50828;53.756;21.140;2023-09-18T04:02:35;100038.36;;;13.92;67.67
64460;BME280;50828;53.756;21.140;2023-09-18T04:07:43;100047.66;;;13.94;67.54
64460;BME280;50828;53.756;21.140;2023-09-18T04:12:53;100049.44;;;13.90;67.68
64460;BME280;50828;53.756;21.140;2023-09-18T04:18:00;100052.34;;;13.86;67.43
64460;BME280;50828;53.756;21.140;2023-09-18T04:23:22;100058.75;;;13.82;67.76
64460;BME280;50828;53.756;21.140;2023-09-18T04:28:28;100056.98;;;13.79;68.12
64460;BME280;50828;53.756;21.140;2023-09-18T04:33:36;100051.48;;;13.75;68.11
64460;BME280;50828;53.756;21.140;2023-09-18T04:38:44;100051.30;;;13.72;67.96
64460;BME280;50828;53.756;21.140;2023-09-18T04:43:52;100043.48;;;13.70;68.71
64460;BME280;50828;53.756;21.140;2023-09-18T04:49:00;100044.34;;;13.73;68.96
64460;BME280;50828;53.756;21.140;2023-09-18T04:54:10;100039.40;;;13.80;68.94
64460;BME280;50828;53.756;21.140;2023-09-18T04:59:17;100036.48;;;13.91;68.92
64460;BME280;50828;53.756;21.140;2023-09-18T05:04:25;100031.04;;;14.03;69.32
64460;BME280;50828;53.756;21.140;2023-09-18T05:09:33;100025.85;;;14.14;69.23
64460;BME280;50828;53.756;21.140;2023-09-18T05:14:41;100022.33;;;14.26;69.44
64460;BME280;50828;53.756;21.140;2023-09-18T05:19:49;100022.86;;;14.38;69.20
64460;BME280;50828;53.756;21.140;2023-09-18T05:24:56;100016.50;;;14.53;69.19
64460;BME280;50828;53.756;21.140;2023-09-18T05:30:05;100018.85;;;14.71;69.59
64460;BME280;50828;53.756;21.140;2023-09-18T05:35:13;100016.01;;;14.96;69.51
64460;BME280;50828;53.756;21.140;2023-09-18T05:40:22;100007.66;;;15.25;69.56
64460;BME280;50828;53.756;21.140;2023-09-18T05:45:33;100003.30;;;15.55;69.24
64460;BME280;50828;53.756;21.140;2023-09-18T05:50:40;100003.83;;;15.87;69.10
64460;BME280;50828;53.756;21.140;2023-09-18T05:55:49;99996.07;;;16.14;69.07
64460;BME280;50828;53.756;21.140;2023-09-18T06:00:56;99989.65;;;16.36;68.99
64460;BME280;50828;53.756;21.140;2023-09-18T06:06:04;99983.08;;;16.55;68.90
64460;BME280;50828;53.756;21.140;2023-09-18T06:11:12;99979.73;;;16.70;69.06
64460;BME280;50828;53.756;21.140;2023-09-18T06:16:20;99974.97;;;16.85;68.91
64460;BME280;50828;53.756;21.140;2023-09-18T06:21:27;99981.45;;;17.00;68.99
64460;BME280;50828;53.756;21.140;2023-09-18T06:26:35;99976.52;;;17.10;68.95
64460;BME280;50828;53.756;21.140;2023-09-18T06:31:43;99975.77;;;17.20;68.82
64460;BME280;50828;53.756;21.140;2023-09-18T06:36:50;99972.48;;;17.29;68.83
64460;BME280;50828;53.756;21.140;2023-09-18T06:41:57;99971.26;;;17.39;68.79
64460;BME280;50828;53.756;21.140;2023-09-18T06:47:05;99969.98;;;17.47;68.82
64460;BME280;50828;53.756;21.140;2023-09-18T06:52:13;99968.42;;;17.54;68.82
64460;BME280;50828;53.756;21.140;2023-09-18T06:57:21;99973.78;;;17.64;68.90
64460;BME280;50828;53.756;21.140;2023-09-18T07:02:28;99973.64;;;17.76;68.87
64460;BME280;50828;53.756;21.140;2023-09-18T07:07:36;99962.70;;;17.82;68.73
64460;BME280;50828;53.756;21.140;2023-09-18T07:12:43;99971.23;;;18.02;68.86
64460;BME280;50828;53.756;21.140;2023-09-18T07:17:51;99969.90;;;18.15;68.69
64460;BME280;50828;53.756;21.140;2023-09-18T07:22:59;99970.17;;;18.31;68.79
64460;BME280;50828;53.756;21.140;2023-09-18T07:28:07;99966.71;;;18.46;68.74
64460;BME280;50828;53.756;21.140;2023-09-18T07:33:15;99965.77;;;18.63;68.67
64460;BME280;50828;53.756;21.140;2023-09-18T07:38:23;99968.77;;;18.80;68.45
64460;BME280;50828;53.756;21.140;2023-09-18T07:43:31;99965.02;;;18.97;68.31
64460;BME280;50828;53.756;21.140;2023-09-18T07:48:39;99961.70;;;19.14;68.24
64460;BME280;50828;53.756;21.140;2023-09-18T07:53:46;99957.73;;;19.31;68.06
64460;BME280;50828;53.756;21.140;2023-09-18T07:58:55;99956.42;;;19.51;68.18
64460;BME280;50828;53.756;21.140;2023-09-18T08:04:02;99949.67;;;19.76;67.89
64460;BME280;50828;53.756;21.140;2023-09-18T08:09:11;99948.52;;;20.01;67.80
64460;BME280;50828;53.756;21.140;2023-09-18T08:14:20;99941.39;;;20.27;67.56
64460;BME280;50828;53.756;21.140;2023-09-18T08:19:28;99928.81;;;20.49;67.29
64460;BME280;50828;53.756;21.140;2023-09-18T08:24:35;99927.20;;;20.73;66.98
64460;BME280;50828;53.756;21.140;2023-09-18T08:29:43;99929.27;;;20.96;66.83
64460;BME280;50828;53.756;21.140;2023-09-18T08:34:51;99920.08;;;21.20;66.41
64460;BME280;50828;53.756;21.140;2023-09-18T08:39:58;99920.46;;;21.42;66.03
64460;BME280;50828;53.756;21.140;2023-09-18T08:45:09;99920.60;;;21.67;65.63
64460;BME280;50828;53.756;21.140;2023-09-18T08:50:17;99911.40;;;21.93;65.23
64460;BME280;50828;53.756;21.140;2023-09-18T08:55:26;99909.59;;;22.19;64.54
64460;BME280;50828;53.756;21.140;2023-09-18T09:00:34;99902.44;;;22.41;63.51
64460;BME280;50828;53.756;21.140;2023-09-18T09:05:43;99895.95;;;22.60;62.86
64460;BME280;50828;53.756;21.140;2023-09-18T09:10:51;99898.12;;;22.77;61.95
64460;BME280;50828;53.756;21.140;2023-09-18T09:15:59;99894.70;;;22.92;61.29
64460;BME280;50828;53.756;21.140;2023-09-18T09:21:07;99885.62;;;23.07;60.57
64460;BME280;50828;53.756;21.140;2023-09-18T09:26:18;99885.90;;;23.19;59.80
64460;BME280;50828;53.756;21.140;2023-09-18T09:31:28;99886.35;;;23.31;59.31
64460;BME280;50828;53.756;21.140;2023-09-18T09:36:36;99883.14;;;23.42;58.97
64460;BME280;50828;53.756;21.140;2023-09-18T09:41:48;99876.83;;;23.49;58.44
64460;BME280;50828;53.756;21.140;2023-09-18T09:46:56;99873.81;;;23.56;58.06
64460;BME280;50828;53.756;21.140;2023-09-18T09:52:19;99867.68;;;23.64;57.78
64460;BME280;50828;53.756;21.140;2023-09-18T09:57:28;99862.21;;;23.72;57.60
64460;BME280;50828;53.756;21.140;2023-09-18T10:02:37;99858.33;;;23.80;57.39
64460;BME280;50828;53.756;21.140;2023-09-18T10:07:46;99854.80;;;23.94;57.01
64460;BME280;50828;53.756;21.140;2023-09-18T10:12:55;99841.98;;;24.06;56.49
64460;BME280;50828;53.756;21.140;2023-09-18T10:18:10;99833.89;;;24.16;55.97
64460;BME280;50828;53.756;21.140;2023-09-18T10:23:33;99817.02;;;24.25;55.38
64460;BME280;50828;53.756;21.140;2023-09-18T10:28:46;99806.69;;;24.33;54.97
64460;BME280;50828;53.756;21.140;2023-09-18T10:34:00;99809.40;;;24.39;53.91
64460;BME280;50828;53.756;21.140;2023-09-18T10:39:10;99812.82;;;24.43;53.28
64460;BME280;50828;53.756;21.140;2023-09-18T10:44:19;99804.88;;;24.45;52.81
64460;BME280;50828;53.756;21.140;2023-09-18T10:49:27;99808.66;;;24.50;52.51
64460;BME280;50828;53.756;21.140;2023-09-18T10:54:35;99805.05;;;24.54;52.43
64460;BME280;50828;53.756;21.140;2023-09-18T10:59:47;99798.80;;;24.62;52.44
64460;BME280;50828;53.756;21.140;2023-09-18T11:04:55;99795.06;;;24.70;52.29
64460;BME280;50828;53.756;21.140;2023-09-18T11:10:29;99788.64;;;24.80;52.22
64460;BME280;50828;53.756;21.140;2023-09-18T11:15:36;99786.40;;;24.89;51.91
64460;BME280;50828;53.756;21.140;2023-09-18T11:20:44;99781.07;;;24.97;51.72
64460;BME280;50828;53.756;21.140;2023-09-18T11:26:14;99770.75;;;25.03;51.33
64460;BME280;50828;53.756;21.140;2023-09-18T11:31:43;99769.26;;;25.10;51.02
64460;BME280;50828;53.756;21.140;2023-09-18T11:36:52;99773.16;;;25.14;50.68
64460;BME280;50828;53.756;21.140;2023-09-18T11:42:10;99766.31;;;25.18;50.68
64460;BME280;50828;53.756;21.140;2023-09-18T11:47:19;99767.27;;;25.25;50.17
64460;BME280;50828;53.756;21.140;2023-09-18T11:52:33;99759.84;;;25.26;50.06
64460;BME280;50828;53.756;21.140;2023-09-18T11:57:43;99758.39;;;25.28;50.22
64460;BME280;50828;53.756;21.140;2023-09-18T12:02:54;99748.94;;;25.34;50.40
64460;BME280;50828;53.756;21.140;2023-09-18T12:08:04;99741.06;;;25.47;50.17
64460;BME280;50828;53.756;21.140;2023-09-18T12:13:12;99732.17;;;25.59;49.64
64460;BME280;50828;53.756;21.140;2023-09-18T12:18:21;99726.06;;;25.65;49.07
64460;BME280;50828;53.756;21.140;2023-09-18T12:23:40;99723.15;;;25.72;49.06
64460;BME280;50828;53.756;21.140;2023-09-18T12:28:48;99723.55;;;25.75;49.00
64460;BME280;50828;53.756;21.140;2023-09-18T12:33:56;99727.10;;;25.80;48.85
64460;BME280;50828;53.756;21.140;2023-09-18T12:39:05;99717.96;;;25.86;48.63
64460;BME280;50828;53.756;21.140;2023-09-18T12:44:13;99705.12;;;25.87;48.49
64460;BME280;50828;53.756;21.140;2023-09-18T12:49:23;99698.73;;;25.88;48.25
64460;BME280;50828;53.756;21.140;2023-09-18T12:54:41;99700.52;;;25.89;48.16
64460;BME280;50828;53.756;21.140;2023-09-18T12:59:51;99702.02;;;25.89;47.69
64460;BME280;50828;53.756;21.140;2023-09-18T13:05:00;99697.75;;;25.88;47.37
64460;BME280;50828;53.756;21.140;2023-09-18T13:10:11;99690.38;;;25.88;47.50
64460;BME280;50828;53.756;21.140;2023-09-18T13:15:27;99685.83;;;25.90;47.33
64460;BME280;50828;53.756;21.140;2023-09-18T13:20:37;99678.66;;;25.86;46.99
64460;BME280;50828;53.756;21.140;2023-09-18T13:25:46;99671.65;;;25.82;46.84
64460;BME280;50828;53.756;21.140;2023-09-18T13:30:53;99664.27;;;25.86;47.19
64460;BME280;50828;53.756;21.140;2023-09-18T13:36:01;99654.73;;;25.91;47.15
64460;BME280;50828;53.756;21.140;2023-09-18T13:41:09;99647.08;;;25.95;47.13
64460;BME280;50828;53.756;21.140;2023-09-18T13:46:19;99637.83;;;25.97;46.87
64460;BME280;50828;53.756;21.140;2023-09-18T13:51:27;99630.95;;;26.00;46.60
64460;BME280;50828;53.756;21.140;2023-09-18T13:56:35;99617.84;;;26.01;46.33
64460;BME280;50828;53.756;21.140;2023-09-18T14:01:43;99610.77;;;25.98;46.18
64460;BME280;50828;53.756;21.140;2023-09-18T14:06:51;99611.08;;;26.00;46.21
64460;BME280;50828;53.756;21.140;2023-09-18T14:11:59;99604.89;;;25.99;45.98
64460;BME280;50828;53.756;21.140;2023-09-18T14:17:07;99600.50;;;26.00;45.89
64460;BME280;50828;53.756;21.140;2023-09-18T14:22:16;99594.20;;;25.96;46.30
64460;BME280;50828;53.756;21.140;2023-09-18T14:27:24;99585.65;;;25.97;46.44
64460;BME280;50828;53.756;21.140;2023-09-18T14:32:32;99581.14;;;25.99;46.35
64460;BME280;50828;53.756;21.140;2023-09-18T14:37:42;99576.85;;;26.00;46.16
64460;BME280;50828;53.756;21.140;2023-09-18T14:42:50;99572.27;;;25.99;46.02
64460;BME280;50828;53.756;21.140;2023-09-18T14:47:58;99570.94;;;25.98;45.77
64460;BME280;50828;53.756;21.140;2023-09-18T14:53:06;99561.48;;;25.95;46.07
64460;BME280;50828;53.756;21.140;2023-09-18T14:58:15;99550.38;;;25.91;45.84
64460;BME280;50828;53.756;21.140;2023-09-18T15:03:24;99540.11;;;25.88;45.75
64460;BME280;50828;53.756;21.140;2023-09-18T15:08:32;99540.06;;;25.89;45.59
64460;BME280;50828;53.756;21.140;2023-09-18T15:13:40;99535.44;;;25.88;45.79
64460;BME280;50828;53.756;21.140;2023-09-18T15:18:47;99530.09;;;25.86;45.89
64460;BME280;50828;53.756;21.140;2023-09-18T15:24:03;99521.30;;;25.86;45.74
64460;BME280;50828;53.756;21.140;2023-09-18T15:29:11;99516.42;;;25.84;45.77
64460;BME280;50828;53.756;21.140;2023-09-18T15:34:19;99511.04;;;25.83;45.94
64460;BME280;50828;53.756;21.140;2023-09-18T15:39:27;99506.82;;;25.83;45.93
64460;BME280;50828;53.756;21.140;2023-09-18T15:44:35;99502.50;;;25.79;45.81
64460;BME280;50828;53.756;21.140;2023-09-18T15:49:43;99498.73;;;25.76;45.69
64460;BME280;50828;53.756;21.140;2023-09-18T15:54:51;99498.63;;;25.74;45.76
64460;BME280;50828;53.756;21.140;2023-09-18T15:59:59;99497.22;;;25.72;45.84
64460;BME280;50828;53.756;21.140;2023-09-18T16:05:16;99492.42;;;25.70;45.94
64460;BME280;50828;53.756;21.140;2023-09-18T16:10:25;99489.97;;;25.66;46.15
64460;BME280;50828;53.756;21.140;2023-09-18T16:15:32;99490.27;;;25.61;46.15
64460;BME280;50828;53.756;21.140;2023-09-18T16:20:41;99485.45;;;25.57;46.35
64460;BME280;50828;53.756;21.140;2023-09-18T16:25:48;99478.02;;;25.51;46.41
64460;BME280;50828;53.756;21.140;2023-09-18T16:30:56;99470.68;;;25.44;46.38
64460;BME280;50828;53.756;21.140;2023-09-18T16:36:11;99470.23;;;25.36;46.65
64460;BME280;50828;53.756;21.140;2023-09-18T16:41:18;99466.75;;;25.29;46.71
64460;BME280;50828;53.756;21.140;2023-09-18T16:46:26;99464.99;;;25.19;47.02
64460;BME280;50828;53.756;21.140;2023-09-18T16:51:34;99460.96;;;25.08;47.07
64460;BME280;50828;53.756;21.140;2023-09-18T16:56:41;99457.88;;;24.97;47.17
64460;BME280;50828;53.756;21.140;2023-09-18T17:01:49;99457.69;;;24.85;47.47
64460;BME280;50828;53.756;21.140;2023-09-18T17:06:57;99457.19;;;24.74;47.69
64460;BME280;50828;53.756;21.140;2023-09-18T17:12:05;99456.48;;;24.62;47.95
64460;BME280;50828;53.756;21.140;2023-09-18T17:17:13;99450.41;;;24.50;48.10
64460;BME280;50828;53.756;21.140;2023-09-18T17:22:21;99447.63;;;24.38;48.36
64460;BME280;50828;53.756;21.140;2023-09-18T17:27:29;99446.49;;;24.27;48.58
64460;BME280;50828;53.756;21.140;2023-09-18T17:32:38;99445.95;;;24.16;48.73
64460;BME280;50828;53.756;21.140;2023-09-18T17:37:46;99439.55;;;24.05;48.98
64460;BME280;50828;53.756;21.140;2023-09-18T17:42:54;99441.23;;;23.94;49.11
64460;BME280;50828;53.756;21.140;2023-09-18T17:48:04;99438.37;;;23.84;49.22
64460;BME280;50828;53.756;21.140;2023-09-18T17:53:14;99434.46;;;23.75;49.40
64460;BME280;50828;53.756;21.140;2023-09-18T17:58:22;99429.52;;;23.66;49.63
64460;BME280;50828;53.756;21.140;2023-09-18T18:03:30;99427.16;;;23.57;49.75
64460;BME280;50828;53.756;21.140;2023-09-18T18:08:39;99425.23;;;23.48;49.82
64460;BME280;50828;53.756;21.140;2023-09-18T18:13:47;99423.25;;;23.41;49.91
64460;BME280;50828;53.756;21.140;2023-09-18T18:18:57;99430.62;;;23.34;50.12
64460;BME280;50828;53.756;21.140;2023-09-18T18:24:06;99424.05;;;23.27;50.15
64460;BME280;50828;53.756;21.140;2023-09-18T18:29:15;99424.35;;;23.19;50.37
64460;BME280;50828;53.756;21.140;2023-09-18T18:34:23;99414.64;;;23.10;50.38
64460;BME280;50828;53.756;21.140;2023-09-18T18:39:31;99407.20;;;22.98;50.48
64460;BME280;50828;53.756;21.140;2023-09-18T18:44:39;99412.85;;;22.98;50.60
64460;BME280;50828;53.756;21.140;2023-09-18T18:49:47;99415.30;;;22.91;50.82
64460;BME280;50828;53.756;21.140;2023-09-18T18:54:55;99413.11;;;22.85;51.00
64460;BME280;50828;53.756;21.140;2023-09-18T19:00:04;99405.39;;;22.76;50.98
64460;BME280;50828;53.756;21.140;2023-09-18T19:05:17;99402.40;;;22.72;51.19
64460;BME280;50828;53.756;21.140;2023-09-18T19:10:28;99398.91;;;22.64;51.26
64460;BME280;50828;53.756;21.140;2023-09-18T19:15:36;99396.41;;;22.58;51.27
64460;BME280;50828;53.756;21.140;2023-09-18T19:20:49;99391.89;;;22.48;51.12
64460;BME280;50828;53.756;21.140;2023-09-18T19:25:55;99385.90;;;22.38;51.07
64460;BME280;50828;53.756;21.140;2023-09-18T19:31:04;99382.90;;;22.27;51.21
64460;BME280;50828;53.756;21.140;2023-09-18T19:36:12;99380.36;;;22.13;51.37
64460;BME280;50828;53.756;21.140;2023-09-18T19:41:22;99376.90;;;22.01;51.92
64460;BME280;50828;53.756;21.140;2023-09-18T19:46:34;99370.36;;;21.89;52.33
64460;BME280;50828;53.756;21.140;2023-09-18T19:51:43;99366.28;;;21.77;52.57
64460;BME280;50828;53.756;21.140;2023-09-18T19:56:54;99363.87;;;21.69;52.92
64460;BME280;50828;53.756;21.140;2023-09-18T20:02:01;99357.81;;;21.60;53.10
64460;BME280;50828;53.756;21.140;2023-09-18T20:07:12;99354.86;;;21.50;53.35
64460;BME280;50828;53.756;21.140;2023-09-18T20:12:20;99352.16;;;21.42;53.55
64460;BME280;50828;53.756;21.140;2023-09-18T20:17:30;99351.70;;;21.36;53.72
64460;BME280;50828;53.756;21.140;2023-09-18T20:22:39;99345.95;;;21.29;53.96
64460;BME280;50828;53.756;21.140;2023-09-18T20:27:47;99335.13;;;21.20;54.17
64460;BME280;50828;53.756;21.140;2023-09-18T20:32:56;99333.02;;;21.14;54.41
64460;BME280;50828;53.756;21.140;2023-09-18T20:38:05;99331.08;;;21.08;54.60
64460;BME280;50828;53.756;21.140;2023-09-18T20:43:17;99328.19;;;21.03;54.85
64460;BME280;50828;53.756;21.140;2023-09-18T20:48:30;99325.38;;;20.97;55.00
64460;BME280;50828;53.756;21.140;2023-09-18T20:53:39;99329.10;;;20.91;55.15
64460;BME280;50828;53.756;21.140;2023-09-18T20:58:52;99328.59;;;20.86;55.39
64460;BME280;50828;53.756;21.140;2023-09-18T21:04:02;99320.53;;;20.78;55.62
64460;BME280;50828;53.756;21.140;2023-09-18T21:09:10;99323.20;;;20.75;55.86
64460;BME280;50828;53.756;21.140;2023-09-18T21:14:19;99322.41;;;20.69;56.09
64460;BME280;50828;53.756;21.140;2023-09-18T21:19:28;99321.51;;;20.66;56.26
64460;BME280;50828;53.756;21.140;2023-09-18T21:24:37;99314.17;;;20.62;56.44
64460;BME280;50828;53.756;21.140;2023-09-18T21:29:45;99315.89;;;20.59;56.58
64460;BME280;50828;53.756;21.140;2023-09-18T21:34:52;99314.02;;;20.54;56.74
64460;BME280;50828;53.756;21.140;2023-09-18T21:40:00;99313.89;;;20.50;56.83
64460;BME280;50828;53.756;21.140;2023-09-18T21:45:10;99311.08;;;20.45;57.11
64460;BME280;50828;53.756;21.140;2023-09-18T21:50:18;99311.98;;;20.41;57.18
64460;BME280;50828;53.756;21.140;2023-09-18T21:55:26;99308.30;;;20.35;57.31
64460;BME280;50828;53.756;21.140;2023-09-18T22:00:34;99311.55;;;20.30;57.68
64460;BME280;50828;53.756;21.140;2023-09-18T22:05:46;99305.23;;;20.25;57.99
64460;BME280;50828;53.756;21.140;2023-09-18T22:10:54;99294.33;;;20.20;58.20
64460;BME280;50828;53.756;21.140;2023-09-18T22:16:03;99284.73;;;20.13;58.30
64460;BME280;50828;53.756;21.140;2023-09-18T22:21:11;99289.39;;;20.13;58.38
64460;BME280;50828;53.756;21.140;2023-09-18T22:26:19;99279.77;;;20.11;58.63
64460;BME280;50828;53.756;21.140;2023-09-18T22:31:27;99277.12;;;20.09;58.74
64460;BME280;50828;53.756;21.140;2023-09-18T22:36:34;99275.27;;;20.06;58.80
64460;BME280;50828;53.756;21.140;2023-09-18T22:57:47;99262.73;;;19.85;59.72
64460;BME280;50828;53.756;21.140;2023-09-18T23:02:57;99260.20;;;19.81;59.96
64460;BME280;50828;53.756;21.140;2023-09-18T23:08:09;99253.38;;;19.78;60.19
64460;BME280;50828;53.756;21.140;2023-09-18T23:13:18;99245.36;;;19.73;60.20
64460;BME280;50828;53.756;21.140;2023-09-18T23:18:25;99239.34;;;19.72;60.41
64460;BME280;50828;53.756;21.140;2023-09-18T23:23:34;99236.89;;;19.70;60.47
64460;BME280;50828;53.756;21.140;2023-09-18T23:28:44;99230.33;;;19.68;60.52
64460;BME280;50828;53.756;21.140;2023-09-18T23:33:54;99225.88;;;19.66;60.67
64460;BME280;50828;53.756;21.140;2023-09-18T23:39:01;99218.17;;;19.62;60.95
64460;BME280;50828;53.756;21.140;2023-09-18T23:44:10;99209.39;;;19.59;61.02
64460;BME280;50828;53.756;21.140;2023-09-18T23:49:22;99203.02;;;19.54;61.11
64460;BME280;50828;53.756;21.140;2023-09-18T23:54:30;99187.48;;;19.50;61.20
64460;BME280;50828;53.756;21.140;2023-09-18T23:59:39;99176.23;;;19.46;61.39
